Terminal Aerodrome Forecast
Issued by NWS Quad Cities IA IL

Home | Current Version | Previous Version | Graphics & Text | Print | Product List | Glossary On
Versions: 1 2 3 4 5 6 7 8 9 10 11 12 13 14 15 16 17
175
FTUS43 KDVN 291141
TAFMLI
TAF
KMLI 291141Z 2912/3012 30003KT P6SM BKN007 OVC012
     FM291600 35006KT P6SM OVC025
     FM292000 01009KT P6SM BKN035
     FM300900 35003KT 3SM BR BKN015=

USA.gov is the U.S. government's official web portal to all federal, state and local government web resources and services.